Burbaguena, Spain

7:59 AM CEST on April 26, 2018 (GMT +0200)
Calamocha-Puente Romano | | Change Station

Elev 2904 ft 40.92 °N, 1.30 °W | Updated 29 minutes ago

Partly Cloudy
Partly Cloudy
45.5 °F
Feels Like 46 °F
N
0.1
Wind Variable Wind from North
Gusts 3.0 mph

Today
High -- | Low -- °F
--% Chance of Precip.
Yesterday
High -- | Low -- °F
Precip. -- in
Pressure 30.12 in
Visibility -9999.0 miles
Clouds
Windchill 46 °F
Dew Point 42 °F
Humidity 88%
Rainfall 0.00 in
Snow Depth Not available.
7:10 AM 8:56 PM
Waxing Gibbous, 84% visible
METAR LETL 260430Z AUTO 33012KT CAVOK 07/05 Q1020
Pressure 30.12 in
Visibility -9999.0 miles
Clouds
Windchill 46 °F
Dew Point 42 °F
Humidity 88%
Rainfall 0.00 in
Snow Depth Not available.
7:10 AM 8:56 PM
Waxing Gibbous, 84% visible
METAR LETL 260430Z AUTO 33012KT CAVOK 07/05 Q1020

Get Severe Weather Alerts

Thanks for signing up!

Be on the lookout for a verification email in your inbox.

You'll start receiving the daily forecast at 6 AM.

×

10-Day Weather Forecast

×

Almanac

Astronomy

Apr. 26, 2018 Rise Set
Actual Time
Civil Twilight
Nautical Twilight
Astronomical Twilight
Moon
Length of Visible Light
Length of Day
Tomorrow will be .
, % of the Moon is Illuminated

Today's Extremes

Country Highs Country Lows

Community

WunderPhotos

Category 6

Welcome to Category 6. This is the collective home for Weather Underground's featured writeups by Dr. Jeff Masters (right), Bob Henson (left), Chris Burt, and other regular contributors.

Nearby

Air Quality

  Air Quality AQ Index Pollutant
Not available.

Snow Depth

Station Depth Elevation

Earthquake Activity

City Distance Mag. Time & Date
Minimum magnitude displayed is 2.5.

Coastal Water Temperatures

Place Temperature

Stations

Nearby Weather Stations

Station Location Temp. Windchill Dew Point Humidity Wind Precip. Elev Updated Type